Terminal Aerodrome Forecast
Issued by NWS Melbourne, FL

Home | Current Version | Previous Version | Text Only | Print | Product List | Glossary On
Versions: 1 2 3 4 5 6 7 8 9 10 11 12 13 14 15
729
FTUS42 KMLB 251742
TAFVRB
TAF
KVRB 251742Z 2518/2618 11011KT P6SM SCT045
     FM260000 14005KT P6SM FEW030
     FM261400 18007KT P6SM FEW035=

USA.gov is the U.S. government's official web portal to all federal, state and local government web resources and services.